Bearden, Oklahoma
Current Conditions -  °F | °C
As of 7:35 AM on Friday 19 Dec 2014 (Local Time) from KOKM Reporting Station
Haze Haze  
Wind Chill: 33°   Ceiling: 400
Heat Index: 38°   Visibility: 3mi
Dew Point: 37°   Wind: 6mph
Humidity: 99%   Direction: 350°N
Pressure: 30.24"   Gusts: 16mph
Location:  35.469°N, 96.2923°W
Report Text: KOKM 191335Z AUTO 35005G14KT 3SM BR OVC004 03/03 A3024 RMK AO2 T00320030
Loading
Personal Weather Stations






























Interactive Weather Map New forecast layout! Learn more

10-Day Weather Forecast

Advertisements
Track Severe Weather on mobile